Young, Australia
Current Conditions -  °F | °C
As of 7:00 PM on Thursday 23 Oct 2014 (Local Time) from YSWG Reporting Station
Clear Clear  
Wind Chill: 86°   Ceiling: Unl
Heat Index: 86°   Visibility: 6mi
Dew Point: 45°   Wind: 7mph
Humidity: 23%   Direction: 30°NNE
Pressure: 29.88"   Gusts: NA
Location:  34.31°S, 148.3°E
Report Text: YSWG 230800Z 03006KT CAVOK 30/07 Q1012
Loading
Personal Weather Stations






























Interactive Weather Map
Tropical Storm Tracking
New forecast layout! Learn more

10-Day Weather Forecast

Advertisements
Track Severe Weather on mobile